createdAt,value
2023-05-09T00:02:30.097Z,18.13
2023-05-09T00:05:32.952Z,17.90
2023-05-09T00:08:37.997Z,17.93
2023-05-09T00:11:40.853Z,18.07
2023-05-09T00:14:45.727Z,17.27
2023-05-09T00:17:48.534Z,17.10
2023-05-09T00:20:51.780Z,17.73
2023-05-09T00:23:55.844Z,21.80
2023-05-09T00:26:58.548Z,21.57
2023-05-09T00:30:01.260Z,20.57
2023-05-09T00:33:04.007Z,19.37
2023-05-09T00:36:07.413Z,19.13
2023-05-09T00:39:11.493Z,19.77
2023-05-09T00:42:14.184Z,20.47
2023-05-09T00:45:16.885Z,20.57
2023-05-09T00:48:19.742Z,19.80
2023-05-09T00:51:23.248Z,19.03
2023-05-09T00:54:27.423Z,18.07
2023-05-09T00:57:30.076Z,16.70
2023-05-09T01:00:32.780Z,14.50
2023-05-09T01:03:36.689Z,17.30
2023-05-09T01:06:46.217Z,17.93
2023-05-09T01:10:00.470Z,18.77
2023-05-09T01:13:09.801Z,17.77
2023-05-09T01:16:23.843Z,16.53
2023-05-09T01:19:46.268Z,17.87
2023-05-09T01:22:56.706Z,18.30
2023-05-09T01:26:04.461Z,18.23
2023-05-09T01:29:37.795Z,18.73
2023-05-09T01:32:43.721Z,18.30
2023-05-09T01:35:52.328Z,19.10
2023-05-09T01:38:55.833Z,18.20
2023-05-09T01:42:00.767Z,19.43
2023-05-09T01:45:09.167Z,18.63
2023-05-09T01:48:14.637Z,18.53
2023-05-09T01:51:18.242Z,18.57
2023-05-09T01:54:23.170Z,18.90
2023-05-09T01:57:26.741Z,18.13
2023-05-09T02:00:33.037Z,19.57
2023-05-09T02:03:37.765Z,20.63
2023-05-09T02:06:41.998Z,19.43
2023-05-09T02:09:44.908Z,18.53
2023-05-09T02:12:47.753Z,17.70
2023-05-09T02:15:52.727Z,17.80
2023-05-09T02:18:55.554Z,17.70
2023-05-09T02:21:58.321Z,18.17
2023-05-09T02:25:01.313Z,16.47
2023-05-09T02:28:04.621Z,17.70
2023-05-09T02:31:10.426Z,17.40
2023-05-09T02:34:14.297Z,18.80
2023-05-09T02:37:17.712Z,18.37
2023-05-09T02:40:21.521Z,18.10
2023-05-09T02:43:24.260Z,18.17
2023-05-09T02:46:28.425Z,18.03
2023-05-09T02:49:32.676Z,17.97
2023-05-09T02:52:35.608Z,17.77
2023-05-09T02:55:38.485Z,18.97
2023-05-09T02:58:41.205Z,18.73
2023-05-09T03:01:45.458Z,18.23
2023-05-09T03:04:48.170Z,18.60
2023-05-09T03:07:51.627Z,17.57
2023-05-09T03:10:54.463Z,18.10
2023-05-09T03:13:57.139Z,18.23
2023-05-09T03:17:01.183Z,19.27
2023-05-09T03:20:05.538Z,19.37
2023-05-09T03:23:08.333Z,19.23
2023-05-09T03:26:11.018Z,19.07
2023-05-09T03:29:13.974Z,18.60
2023-05-09T03:32:18.031Z,19.40
2023-05-09T03:35:20.976Z,19.77
2023-05-09T03:38:24.381Z,19.13
2023-05-09T03:41:27.186Z,20.03
2023-05-09T03:44:29.919Z,20.97
2023-05-09T03:47:33.967Z,20.67
2023-05-09T03:50:36.723Z,19.40
2023-05-09T03:53:39.373Z,19.87
2023-05-09T03:56:42.051Z,19.40
2023-05-09T03:59:44.750Z,19.57
2023-05-09T04:02:49.551Z,21.13
2023-05-09T04:05:52.370Z,20.77
2023-05-09T04:08:55.081Z,19.70
2023-05-09T04:11:57.794Z,18.77
2023-05-09T04:15:00.512Z,18.37
2023-05-09T04:18:05.979Z,16.37
2023-05-09T04:21:08.802Z,18.27
2023-05-09T04:24:11.760Z,18.20
2023-05-09T04:27:14.476Z,17.77
2023-05-09T04:30:17.577Z,17.93
2023-05-09T04:33:22.195Z,18.30
2023-05-09T04:36:25.045Z,18.73
2023-05-09T04:39:27.737Z,18.37
2023-05-09T04:42:33.469Z,18.07
2023-05-09T04:45:36.214Z,19.90
2023-05-09T04:48:40.433Z,17.43
2023-05-09T04:51:43.188Z,14.93
2023-05-09T04:54:46.095Z,15.23
2023-05-09T04:57:48.839Z,16.10
2023-05-09T05:00:51.528Z,15.70
2023-05-09T05:03:55.896Z,15.83
2023-05-09T05:06:58.557Z,17.17
2023-05-09T05:10:01.253Z,16.77
2023-05-09T05:13:04.158Z,16.53
2023-05-09T05:16:07.016Z,16.80
2023-05-09T05:19:11.169Z,16.67
2023-05-09T05:22:13.935Z,15.00
2023-05-09T05:25:17.772Z,15.47
2023-05-09T05:28:20.518Z,15.93
2023-05-09T05:31:23.361Z,15.23
2023-05-09T05:34:27.513Z,15.70
2023-05-09T05:37:30.298Z,14.93
2023-05-09T05:40:33.112Z,18.20
2023-05-09T05:43:35.865Z,13.63
2023-05-09T05:46:38.586Z,13.53
2023-05-09T05:49:42.658Z,13.53
2023-05-09T05:52:45.403Z,13.60
2023-05-09T05:55:49.244Z,11.83
2023-05-09T05:58:51.950Z,15.27
2023-05-09T06:01:54.701Z,15.23
2023-05-09T06:04:58.831Z,14.77
2023-05-09T06:08:01.552Z,13.67
2023-05-09T06:11:06.006Z,14.20
2023-05-09T06:14:08.695Z,14.57
2023-05-09T06:17:11.737Z,14.60
2023-05-09T06:20:15.903Z,13.43
2023-05-09T06:23:22.231Z,12.90
2023-05-09T06:26:24.967Z,13.30
2023-05-09T06:29:27.800Z,13.80
2023-05-09T06:32:30.611Z,12.97
2023-05-09T06:35:34.724Z,13.70
2023-05-09T06:38:37.417Z,11.80
2023-05-09T06:41:40.592Z,14.40
2023-05-09T06:44:43.909Z,13.30
2023-05-09T06:47:46.696Z,12.27
2023-05-09T06:50:51.100Z,12.43
2023-05-09T06:53:53.813Z,13.77
2023-05-09T06:56:56.588Z,13.37
2023-05-09T06:59:59.620Z,12.83
2023-05-09T07:03:02.439Z,13.03
2023-05-09T07:06:07.099Z,13.60
2023-05-09T07:09:10.045Z,12.00
2023-05-09T07:12:12.791Z,12.80
2023-05-09T07:15:22.950Z,13.00
2023-05-09T07:18:35.474Z,13.10
2023-05-09T07:21:39.605Z,15.77
2023-05-09T07:24:44.234Z,17.03
2023-05-09T07:27:46.936Z,17.10
2023-05-09T07:30:49.802Z,16.37
2023-05-09T07:33:52.648Z,17.17
2023-05-09T07:36:58.742Z,16.37
2023-05-09T07:40:01.580Z,15.47
2023-05-09T07:43:04.490Z,16.03
2023-05-09T07:46:07.315Z,14.73
2023-05-09T07:49:10.229Z,16.50
2023-05-09T07:52:14.379Z,17.53
2023-05-09T07:55:17.610Z,17.03
2023-05-09T07:58:20.675Z,16.10
2023-05-09T08:01:23.386Z,16.63
2023-05-09T08:04:26.539Z,16.97
2023-05-09T08:07:30.631Z,17.37
2023-05-09T08:10:33.941Z,17.03
2023-05-09T08:13:37.833Z,16.77
2023-05-09T08:16:40.726Z,16.20
2023-05-09T08:19:43.495Z,16.17
2023-05-09T08:22:47.556Z,15.60
2023-05-09T08:25:54.438Z,16.43
2023-05-09T08:28:57.192Z,16.17
2023-05-09T08:31:59.915Z,16.33
2023-05-09T08:35:02.859Z,15.53
2023-05-09T08:38:06.999Z,15.30
2023-05-09T08:41:09.698Z,14.80
2023-05-09T08:44:12.576Z,14.80
2023-05-09T08:47:16.666Z,14.43
2023-05-09T08:50:20.922Z,14.23
2023-05-09T08:53:26.794Z,14.53
2023-05-09T08:56:31.017Z,14.03
2023-05-09T08:59:36.797Z,12.77
2023-05-09T09:02:42.975Z,14.03
2023-05-09T09:05:46.468Z,13.80
2023-05-09T09:08:51.847Z,13.03
2023-05-09T09:11:55.546Z,12.83
2023-05-09T09:15:04.674Z,13.67
2023-05-09T09:18:10.271Z,12.53
2023-05-09T09:21:16.672Z,12.83
2023-05-09T09:24:23.493Z,13.20
2023-05-09T09:27:26.313Z,11.70
2023-05-09T09:30:29.381Z,14.67
2023-05-09T09:33:32.179Z,12.03
2023-05-09T09:36:36.620Z,11.13
2023-05-09T09:39:55.138Z,10.83
2023-05-09T09:42:57.940Z,11.00
2023-05-09T09:46:03.018Z,11.17
2023-05-09T09:49:06.006Z,10.70
2023-05-09T09:52:08.695Z,10.70
2023-05-09T09:55:13.855Z,9.13
2023-05-09T09:58:25.020Z,9.97
2023-05-09T10:01:27.790Z,10.63
2023-05-09T10:04:31.990Z,9.80
2023-05-09T10:07:35.359Z,8.27
2023-05-09T10:10:39.837Z,9.03
2023-05-09T10:13:42.979Z,8.20
2023-05-09T10:16:47.690Z,8.10
2023-05-09T10:19:52.078Z,8.50
2023-05-09T10:22:57.369Z,7.63
2023-05-09T10:26:10.170Z,8.37
2023-05-09T10:29:14.149Z,7.03
2023-05-09T10:32:20.656Z,6.83
2023-05-09T10:35:27.548Z,6.47
2023-05-09T10:38:31.923Z,7.83
2023-05-09T10:41:37.029Z,6.73
2023-05-09T10:44:40.283Z,6.33
2023-05-09T10:47:45.071Z,6.70
2023-05-09T10:50:48.586Z,7.70
2023-05-09T10:53:52.244Z,6.50
2023-05-09T10:56:56.947Z,6.23
2023-05-09T11:00:00.416Z,6.67
2023-05-09T11:03:08.047Z,5.50
2023-05-09T11:06:11.248Z,6.40
2023-05-09T11:09:28.372Z,5.40
2023-05-09T11:12:32.791Z,6.60
2023-05-09T11:15:37.631Z,6.50
2023-05-09T11:18:58.609Z,6.37
2023-05-09T11:22:03.493Z,6.53
2023-05-09T11:25:08.783Z,5.93
2023-05-09T11:28:28.110Z,6.00
2023-05-09T11:31:30.949Z,5.00
2023-05-09T11:34:34.820Z,4.70
2023-05-09T11:37:47.015Z,4.57
2023-05-09T11:40:49.858Z,4.90
2023-05-09T11:43:54.101Z,5.50
2023-05-09T11:46:58.642Z,4.80
2023-05-09T11:50:01.340Z,4.60
2023-05-09T11:53:04.041Z,4.00
2023-05-09T11:56:08.546Z,4.27
2023-05-09T11:59:14.747Z,4.70
2023-05-09T12:02:17.896Z,4.37
2023-05-09T12:05:22.135Z,4.33
2023-05-09T12:08:27.022Z,3.30
2023-05-09T12:11:32.786Z,4.00
2023-05-09T12:14:36.806Z,3.73
2023-05-09T12:17:39.922Z,3.70
2023-05-09T12:20:44.885Z,3.80
2023-05-09T12:23:50.649Z,3.30
2023-05-09T12:26:56.562Z,2.97
2023-05-09T12:30:02.072Z,3.37
2023-05-09T12:33:05.951Z,3.10
2023-05-09T12:36:11.583Z,2.90
2023-05-09T12:39:15.145Z,3.00
2023-05-09T12:42:18.658Z,2.60
2023-05-09T12:45:23.352Z,2.90
2023-05-09T12:48:26.801Z,2.40
2023-05-09T12:51:29.776Z,2.40
2023-05-09T12:54:33.065Z,2.50
2023-05-09T12:57:36.450Z,2.70
2023-05-09T13:00:45.914Z,2.60
2023-05-09T13:03:53.469Z,2.60
2023-05-09T13:06:59.852Z,2.90
2023-05-09T13:10:02.589Z,2.90
2023-05-09T13:13:05.398Z,2.57
2023-05-09T13:16:11.548Z,2.93
2023-05-09T13:19:15.438Z,3.47
2023-05-09T13:22:21.200Z,3.00
2023-05-09T13:25:24.245Z,3.10
2023-05-09T13:28:26.943Z,2.43
2023-05-09T13:31:31.382Z,2.73
2023-05-09T13:34:34.289Z,2.67
2023-05-09T13:37:37.173Z,2.43
2023-05-09T13:40:40.347Z,2.80
2023-05-09T13:43:43.054Z,2.30
2023-05-09T13:46:47.366Z,2.13
2023-05-09T13:49:50.139Z,2.30
2023-05-09T13:52:52.929Z,2.17
2023-05-09T13:55:55.721Z,2.60
2023-05-09T13:58:58.435Z,2.03
2023-05-09T14:02:03.644Z,2.30
2023-05-09T14:05:07.208Z,2.30
2023-05-09T14:08:09.897Z,2.73
2023-05-09T14:11:15.173Z,2.47
2023-05-09T14:14:17.898Z,2.70
2023-05-09T14:17:22.042Z,2.10
2023-05-09T14:20:25.025Z,2.87
2023-05-09T14:23:27.780Z,2.67
2023-05-09T14:26:30.516Z,2.83
2023-05-09T14:29:33.208Z,2.00
2023-05-09T14:32:37.304Z,2.40
2023-05-09T14:35:41.509Z,2.13
2023-05-09T14:38:45.638Z,2.20
2023-05-09T14:41:50.082Z,2.00
2023-05-09T14:44:52.941Z,1.80
2023-05-09T14:47:57.202Z,1.80
2023-05-09T14:50:59.995Z,2.30
2023-05-09T14:54:04.453Z,2.00
2023-05-09T14:57:07.796Z,2.20
2023-05-09T15:00:20.302Z,2.00
2023-05-09T15:03:26.159Z,1.80
2023-05-09T15:06:29.219Z,1.83
2023-05-09T15:09:31.923Z,1.90
2023-05-09T15:12:34.696Z,2.10
2023-05-09T15:15:38.365Z,2.13
2023-05-09T15:18:45.508Z,2.27
2023-05-09T15:21:48.245Z,2.10
2023-05-09T15:24:51.034Z,2.00
2023-05-09T15:27:54.099Z,2.47
2023-05-09T15:30:58.177Z,2.33
2023-05-09T15:34:02.667Z,2.63
2023-05-09T15:37:05.851Z,2.10
2023-05-09T15:40:09.808Z,2.50
2023-05-09T15:43:12.968Z,2.90
2023-05-09T15:46:16.066Z,2.60
2023-05-09T15:49:20.155Z,2.40
2023-05-09T15:52:22.880Z,2.83
2023-05-09T15:55:26.857Z,2.33
2023-05-09T15:58:31.658Z,2.00
2023-05-09T16:01:41.543Z,2.17
2023-05-09T16:04:45.716Z,2.43
2023-05-09T16:07:50.092Z,2.10
2023-05-09T16:10:53.071Z,1.87
2023-05-09T16:13:55.854Z,1.87
2023-05-09T16:16:58.651Z,1.90
2023-05-09T16:20:03.798Z,1.90
2023-05-09T16:23:06.578Z,2.07
2023-05-09T16:26:09.349Z,1.93
2023-05-09T16:29:12.868Z,2.10
2023-05-09T16:32:15.649Z,1.87
2023-05-09T16:35:19.996Z,1.70
2023-05-09T16:38:22.734Z,2.00
2023-05-09T16:41:25.468Z,2.23
2023-05-09T16:44:28.493Z,3.20
2023-05-09T16:47:31.291Z,2.60
2023-05-09T16:50:36.075Z,2.30
2023-05-09T16:53:38.769Z,2.13
2023-05-09T16:56:42.278Z,2.53
2023-05-09T16:59:45.936Z,2.30
2023-05-09T17:02:48.712Z,1.87
2023-05-09T17:05:52.806Z,2.00
2023-05-09T17:08:55.677Z,1.80
2023-05-09T17:11:58.999Z,2.10
2023-05-09T17:15:01.731Z,2.30
2023-05-09T17:18:04.598Z,1.90
2023-05-09T17:21:08.695Z,2.40
2023-05-09T17:24:11.609Z,2.67
2023-05-09T17:27:14.333Z,3.40
2023-05-09T17:30:18.345Z,2.90
2023-05-09T17:33:22.119Z,2.93
2023-05-09T17:36:26.932Z,3.90
2023-05-09T17:39:29.632Z,3.30
2023-05-09T17:42:32.812Z,3.77
2023-05-09T17:45:35.729Z,4.60
2023-05-09T17:48:38.742Z,4.10
2023-05-09T17:51:42.815Z,4.80
2023-05-09T17:54:45.689Z,5.00
2023-05-09T17:57:49.192Z,5.30
2023-05-09T18:00:53.756Z,5.60
2023-05-09T18:03:57.285Z,5.40
2023-05-09T18:07:01.585Z,5.70
2023-05-09T18:10:07.911Z,5.30
2023-05-09T18:13:10.897Z,5.77
2023-05-09T18:16:13.798Z,5.57
2023-05-09T18:19:16.625Z,5.70
2023-05-09T18:22:21.686Z,6.20
2023-05-09T18:25:24.692Z,6.80
2023-05-09T18:28:27.624Z,6.40
2023-05-09T18:31:31.303Z,6.17
2023-05-09T18:34:34.125Z,6.60
2023-05-09T18:37:38.329Z,5.40
2023-05-09T18:40:41.053Z,6.90
2023-05-09T18:43:46.331Z,7.77
2023-05-09T18:46:49.023Z,8.27
2023-05-09T18:49:51.802Z,9.50
2023-05-09T18:52:55.914Z,9.27
2023-05-09T18:55:58.588Z,9.10
2023-05-09T18:59:01.272Z,9.00
2023-05-09T19:02:03.956Z,9.47
2023-05-09T19:05:07.938Z,9.77
2023-05-09T19:08:12.003Z,9.83
2023-05-09T19:11:14.988Z,11.10
2023-05-09T19:14:17.769Z,10.00
2023-05-09T19:17:20.864Z,9.83
2023-05-09T19:20:24.034Z,9.97
2023-05-09T19:23:28.180Z,9.97
2023-05-09T19:26:30.856Z,10.20
2023-05-09T19:29:33.664Z,11.00
2023-05-09T19:32:36.641Z,10.90
2023-05-09T19:35:39.441Z,10.70
2023-05-09T19:38:43.651Z,10.33
2023-05-09T19:41:46.842Z,10.77
2023-05-09T19:44:53.258Z,10.33
2023-05-09T19:47:56.054Z,10.90
2023-05-09T19:50:59.056Z,10.60
2023-05-09T19:54:03.497Z,10.50
2023-05-09T19:57:06.490Z,10.67
2023-05-09T20:00:10.410Z,10.23
2023-05-09T20:03:13.360Z,10.57
2023-05-09T20:06:16.209Z,10.40
2023-05-09T20:09:21.060Z,10.90
2023-05-09T20:12:23.813Z,10.93
2023-05-09T20:15:26.898Z,10.57
2023-05-09T20:18:33.256Z,10.23
2023-05-09T20:21:36.342Z,10.30
2023-05-09T20:24:40.449Z,10.73
2023-05-09T20:27:43.190Z,10.43
2023-05-09T20:30:46.226Z,11.23
2023-05-09T20:33:48.891Z,10.97
2023-05-09T20:36:53.883Z,10.43
2023-05-09T20:39:58.026Z,9.90
2023-05-09T20:43:00.713Z,9.30
2023-05-09T20:46:03.802Z,10.67
2023-05-09T20:49:07.479Z,9.83
2023-05-09T20:52:10.555Z,9.07
2023-05-09T20:55:14.602Z,10.30
2023-05-09T20:58:17.294Z,9.80
2023-05-09T21:01:20.360Z,10.30
2023-05-09T21:04:23.173Z,10.40
2023-05-09T21:07:25.880Z,10.77
2023-05-09T21:10:29.918Z,10.57
2023-05-09T21:13:32.621Z,10.73
2023-05-09T21:16:36.349Z,10.27
2023-05-09T21:19:39.050Z,12.30
2023-05-09T21:22:41.755Z,12.27
2023-05-09T21:25:45.919Z,12.37
2023-05-09T21:28:48.604Z,13.03
2023-05-09T21:31:52.356Z,12.97
2023-05-09T21:34:55.109Z,13.40
2023-05-09T21:37:57.904Z,12.23
2023-05-09T21:41:02.633Z,12.20
2023-05-09T21:44:05.724Z,11.70
2023-05-09T21:47:08.664Z,12.20
2023-05-09T21:50:11.762Z,12.03
2023-05-09T21:53:14.721Z,12.70
2023-05-09T21:56:18.772Z,9.70
2023-05-09T21:59:22.374Z,8.57
2023-05-09T22:02:25.285Z,8.63
2023-05-09T22:05:28.341Z,8.33
2023-05-09T22:08:31.177Z,8.20
2023-05-09T22:11:35.284Z,9.33
2023-05-09T22:14:48.494Z,12.27
2023-05-09T22:17:58.500Z,11.60
2023-05-09T22:21:01.279Z,11.50
2023-05-09T22:24:05.583Z,8.93
2023-05-09T22:27:09.759Z,8.37
2023-05-09T22:30:13.359Z,7.73
2023-05-09T22:33:16.215Z,7.87
2023-05-09T22:36:19.726Z,4.57
2023-05-09T22:39:22.887Z,4.77
2023-05-09T22:42:27.212Z,6.40
2023-05-09T22:45:30.078Z,6.20
2023-05-09T22:48:32.831Z,6.50
2023-05-09T22:51:35.614Z,5.50
2023-05-09T22:54:38.427Z,5.13
2023-05-09T22:57:42.841Z,5.17
2023-05-09T23:00:45.615Z,6.13
2023-05-09T23:03:48.288Z,5.40
2023-05-09T23:06:51.007Z,5.07
2023-05-09T23:09:53.748Z,5.40
2023-05-09T23:12:57.891Z,5.67
2023-05-09T23:16:00.649Z,5.00
2023-05-09T23:19:04.417Z,4.73
2023-05-09T23:22:07.138Z,4.90
2023-05-09T23:25:10.591Z,4.00
2023-05-09T23:28:17.122Z,4.50
2023-05-09T23:31:19.861Z,4.83
2023-05-09T23:34:22.666Z,4.87
2023-05-09T23:37:25.368Z,5.87
2023-05-09T23:40:28.090Z,4.73
2023-05-09T23:43:32.736Z,4.60
2023-05-09T23:46:35.523Z,4.80
2023-05-09T23:49:38.314Z,3.70
2023-05-09T23:52:41.392Z,2.90
2023-05-09T23:55:44.457Z,3.47
2023-05-09T23:58:48.516Z,2.87
